Time;durP1;ratioP1;P1;durP2;ratioP2;P2;SDS_P1;SDS_P2;PMS_P1;PMS_P2;Temp;Humidity;BMP_temperature;BMP_pressure;BME280_temperature;BME280_humidity;BME280_pressure;Samples;Min_cycle;Max_cycle;Signal;HPM_P1;HPM_P2
2020/12/13 00:00:02;;;;;;;;;;;;;;;;;;5073066;28;20026;-39
2020/12/13 00:02:27;;;;;;;;;;;;;;;;;;5072283;28;19916;-39
2020/12/13 00:04:53;;;;;;;;;;;;;;;;;;5072885;28;19931;-42
2020/12/13 00:07:18;;;;;;;;;;;;;;;;;;5073077;28;20288;-40
2020/12/13 00:09:43;;;;;;;;;;;;;;;;;;5072819;28;20377;-41
2020/12/13 00:12:08;;;;;;;;;;;;;;;;;;5072265;28;20285;-39
2020/12/13 00:14:33;;;;;;;;;;;;;;;;;;5072879;28;19931;-41
2020/12/13 00:16:58;;;;;;;;;;;;;;;;;;5072892;28;19909;-40
2020/12/13 00:19:23;;;;;;;;;;;;;;;;;;5072631;28;20391;-40
2020/12/13 00:21:49;;;;;;;;;;;;;;;;;;5072968;28;19943;-38
2020/12/13 00:24:14;;;;;;;;;;;;;;;;;;5072085;28;19939;-40
2020/12/13 00:26:39;;;;;;;;;;;;;;;;;;5072651;28;20429;-39
2020/12/13 00:29:04;;;;;;;;;;;;;;;;;;5072642;28;20003;-40
2020/12/13 00:31:29;;;;;;;;;;;;;;;;;;5069167;28;19995;-40
2020/12/13 00:33:54;;;;;;;;;;;;;;;;;;5071947;28;20010;-40
2020/12/13 00:36:19;;;;;;;;;;;;;;;;;;5072468;28;19995;-42
2020/12/13 00:38:44;;;;;;;;;;;;;;;;;;5071395;28;20007;-39
2020/12/13 00:41:09;;;;;;;;;;;;;;;;;;5072454;28;19916;-42
2020/12/13 00:43:34;;;;;;;;;;;;;;;;;;5071620;28;19920;-40
2020/12/13 00:46:00;;;;;;;;;;;;;;;;;;5072330;28;19908;-42
2020/12/13 00:48:25;;;;;;;;;;;;;;;;;;5072376;28;19909;-40
2020/12/13 00:50:50;;;;;;;;;;;;;;;;;;5072281;28;19909;-41
2020/12/13 00:53:15;;;;;;;;;;;;;;;;;;5071572;28;19908;-40
2020/12/13 00:55:40;;;;;;;;;;;;;;;;;;5072179;28;19909;-41
2020/12/13 00:58:05;;;;;;;;;;;;;;;;;;5072223;28;20384;-39
2020/12/13 01:00:30;;;;;;;;;;;;;;;;;;5072240;28;20381;-40
2020/12/13 01:03:00;;;;;;;;;;;;;;;;;;5071627;28;19974;-39
2020/12/13 01:05:25;;;;;;;;;;;;;;;;;;5072155;28;19908;-40
2020/12/13 01:07:50;;;;;;;;;;;;;;;;;;5071999;28;19915;-42
2020/12/13 01:10:15;;;;;;;;;;;;;;;;;;5072237;28;19920;-40
2020/12/13 01:12:40;;;;;;;;;;;;;;;;;;5071613;28;19908;-43
2020/12/13 01:15:05;;;;;;;;;;;;;;;;;;5072192;28;19909;-38
2020/12/13 01:17:30;;;;;;;;;;;;;;;;;;5071988;28;20407;-42
2020/12/13 01:19:56;;;;;;;;;;;;;;;;;;5128387;22;19950;-43
2020/12/13 01:22:23;;;;;;;;;;;;;;;;;;5070751;28;19991;-43
2020/12/13 01:24:48;;;;;;;;;;;;;;;;;;5072047;28;19908;-44
2020/12/13 01:27:13;;;;;;;;;;;;;;;;;;5072052;28;19924;-45
2020/12/13 01:29:38;;;;;;;;;;;;;;;;;;5071973;28;19908;-44
2020/12/13 01:32:03;;;;;;;;;;;;;;;;;;5071226;28;19909;-45
2020/12/13 01:34:28;;;;;;;;;;;;;;;;;;5070255;28;19932;-44
2020/12/13 01:36:53;;;;;;;;;;;;;;;;;;5071918;28;19916;-44
2020/12/13 01:39:18;;;;;;;;;;;;;;;;;;5070659;28;19913;-45
2020/12/13 01:41:43;;;;;;;;;;;;;;;;;;5071694;28;19915;-45
2020/12/13 01:44:09;;;;;;;;;;;;;;;;;;5071123;28;20007;-45
2020/12/13 01:46:34;;;;;;;;;;;;;;;;;;5071878;28;19999;-45
2020/12/13 01:49:02;;;;;;;;;;;;;;;;;;5071862;28;19996;-43
2020/12/13 01:51:39;;;;;;;;;;;;;;;;;;5071807;28;20374;-43
2020/12/13 01:54:04;;;;;;;;;;;;;;;;;;5071360;28;19915;-45
2020/12/13 01:56:29;;;;;;;;;;;;;;;;;;5071853;28;19908;-44
2020/12/13 01:58:54;;;;;;;;;;;;;;;;;;5071824;28;19955;-45
2020/12/13 02:01:19;;;;;;;;;;;;;;;;;;5071756;28;19938;-46
2020/12/13 02:03:44;;;;;;;;;;;;;;;;;;5070998;28;19913;-44
2020/12/13 02:06:09;;;;;;;;;;;;;;;;;;5071555;28;19917;-46
2020/12/13 02:08:35;;;;;;;;;;;;;;;;;;5071861;28;20258;-43
2020/12/13 02:11:00;;;;;;;;;;;;;;;;;;5071787;28;20388;-46
2020/12/13 02:13:25;;;;;;;;;;;;;;;;;;5071064;28;20355;-44
2020/12/13 02:15:50;;;;;;;;;;;;;;;;;;5071496;28;20440;-45
2020/12/13 02:18:15;;;;;;;;;;;;;;;;;;5073459;28;20011;-45
2020/12/13 02:20:40;;;;;;;;;;;;;;;;;;5074870;28;19921;-46
2020/12/13 02:23:05;;;;;;;;;;;;;;;;;;5074300;28;19943;-45
2020/12/13 02:25:30;;;;;;;;;;;;;;;;;;5075106;28;19970;-46
2020/12/13 02:27:55;;;;;;;;;;;;;;;;;;5074909;28;20320;-45
2020/12/13 02:30:20;;;;;;;;;;;;;;;;;;5075009;28;20262;-45
2020/12/13 02:32:46;;;;;;;;;;;;;;;;;;5074259;28;20439;-45
2020/12/13 02:35:11;;;;;;;;;;;;;;;;;;5075170;28;20277;-44
2020/12/13 02:37:36;;;;;;;;;;;;;;;;;;5073060;28;20320;-43
2020/12/13 02:40:01;;;;;;;;;;;;;;;;;;5074827;28;20373;-44
2020/12/13 02:42:26;;;;;;;;;;;;;;;;;;5074026;28;20361;-43
2020/12/13 02:44:51;;;;;;;;;;;;;;;;;;5074665;28;19961;-45
2020/12/13 02:47:16;;;;;;;;;;;;;;;;;;5074610;28;19995;-44
2020/12/13 02:49:41;;;;;;;;;;;;;;;;;;5074672;28;19933;-45
2020/12/13 02:52:06;;;;;;;;;;;;;;;;;;5073794;28;19977;-47
2020/12/13 02:54:32;;;;;;;;;;;;;;;;;;5074528;28;19909;-44
2020/12/13 02:56:57;;;;;;;;;;;;;;;;;;5073301;28;19908;-46
2020/12/13 02:59:22;;;;;;;;;;;;;;;;;;5074464;28;19916;-44
2020/12/13 03:01:47;;;;;;;;;;;;;;;;;;5074262;28;19917;-47
2020/12/13 03:04:12;;;;;;;;;;;;;;;;;;5073671;28;19913;-44
2020/12/13 03:06:37;;;;;;;;;;;;;;;;;;5074238;28;19915;-45
2020/12/13 03:09:02;;;;;;;;;;;;;;;;;;5074289;28;19909;-43
2020/12/13 03:11:28;;;;;;;;;;;;;;;;;;5072964;28;19908;-45
2020/12/13 03:13:53;;;;;;;;;;;;;;;;;;5072590;28;20385;-44
2020/12/13 03:16:18;;;;;;;;;;;;;;;;;;5074171;28;20320;-44
2020/12/13 03:18:43;;;;;;;;;;;;;;;;;;5074191;28;20262;-45
2020/12/13 03:21:08;;;;;;;;;;;;;;;;;;5073959;28;19916;-45
2020/12/13 03:23:33;;;;;;;;;;;;;;;;;;5073187;28;19939;-46
2020/12/13 03:25:58;;;;;;;;;;;;;;;;;;5073936;28;19909;-44
2020/12/13 03:28:23;;;;;;;;;;;;;;;;;;5073348;28;19908;-47
2020/12/13 03:30:49;;;;;;;;;;;;;;;;;;5073660;28;19919;-44
2020/12/13 03:33:14;;;;;;;;;;;;;;;;;;5071745;28;19974;-45
2020/12/13 03:35:39;;;;;;;;;;;;;;;;;;5073612;28;20320;-45
2020/12/13 03:38:04;;;;;;;;;;;;;;;;;;5072032;28;20349;-45
2020/12/13 03:40:29;;;;;;;;;;;;;;;;;;5073568;28;20358;-44
2020/12/13 03:42:54;;;;;;;;;;;;;;;;;;5072750;28;19934;-44
2020/12/13 03:45:19;;;;;;;;;;;;;;;;;;5073509;28;19920;-44
2020/12/13 03:47:44;;;;;;;;;;;;;;;;;;5073338;28;19908;-44
2020/12/13 03:50:09;;;;;;;;;;;;;;;;;;5073266;28;19912;-44
2020/12/13 03:52:34;;;;;;;;;;;;;;;;;;5072626;28;19975;-44
2020/12/13 03:55:00;;;;;;;;;;;;;;;;;;5073286;28;20365;-44
2020/12/13 03:57:25;;;;;;;;;;;;;;;;;;5073445;28;20365;-44
2020/12/13 03:59:50;;;;;;;;;;;;;;;;;;5073105;28;19940;-44
2020/12/13 04:02:15;;;;;;;;;;;;;;;;;;5072435;28;20414;-42
2020/12/13 04:04:40;;;;;;;;;;;;;;;;;;5073324;28;19912;-43
2020/12/13 04:07:05;;;;;;;;;;;;;;;;;;5073008;28;19915;-45
2020/12/13 04:09:30;;;;;;;;;;;;;;;;;;5073106;28;20261;-44
2020/12/13 04:11:55;;;;;;;;;;;;;;;;;;5072447;28;20075;-41
2020/12/13 04:14:21;;;;;;;;;;;;;;;;;;5072628;28;20381;-45
2020/12/13 04:16:46;;;;;;;;;;;;;;;;;;5073011;28;19909;-43
2020/12/13 04:19:11;;;;;;;;;;;;;;;;;;5072838;28;19915;-46
2020/12/13 04:21:36;;;;;;;;;;;;;;;;;;5072725;28;19917;-44
2020/12/13 04:24:01;;;;;;;;;;;;;;;;;;5072136;28;19912;-44
2020/12/13 04:26:26;;;;;;;;;;;;;;;;;;5072917;28;19909;-44
2020/12/13 04:28:51;;;;;;;;;;;;;;;;;;5072808;28;19962;-45
2020/12/13 04:31:16;;;;;;;;;;;;;;;;;;5072499;28;20011;-44
2020/12/13 04:33:41;;;;;;;;;;;;;;;;;;5071877;28;20011;-45
2020/12/13 04:36:06;;;;;;;;;;;;;;;;;;5072585;28;19993;-43
2020/12/13 04:38:32;;;;;;;;;;;;;;;;;;5070911;28;19967;-44
2020/12/13 04:40:57;;;;;;;;;;;;;;;;;;5071676;28;19909;-43
2020/12/13 04:43:22;;;;;;;;;;;;;;;;;;5072257;28;19919;-44
2020/12/13 04:45:47;;;;;;;;;;;;;;;;;;5072470;28;19915;-44
2020/12/13 04:48:12;;;;;;;;;;;;;;;;;;5072483;28;19916;-44
2020/12/13 04:50:37;;;;;;;;;;;;;;;;;;5072435;28;19916;-44
2020/12/13 04:53:02;;;;;;;;;;;;;;;;;;5071731;28;19908;-43
2020/12/13 04:55:29;;;;;;;;;;;;;;;;;;5072622;28;20336;-45
2020/12/13 04:57:54;;;;;;;;;;;;;;;;;;5072440;28;19936;-44
2020/12/13 05:00:19;;;;;;;;;;;;;;;;;;5072435;28;19950;-45
2020/12/13 05:02:44;;;;;;;;;;;;;;;;;;5071682;28;19944;-43
2020/12/13 05:05:09;;;;;;;;;;;;;;;;;;5072444;28;19955;-44
2020/12/13 05:07:35;;;;;;;;;;;;;;;;;;5072062;28;20065;-44
2020/12/13 05:10:00;;;;;;;;;;;;;;;;;;5072241;28;20397;-46
2020/12/13 05:12:25;;;;;;;;;;;;;;;;;;5071438;28;19935;-43
2020/12/13 05:14:50;;;;;;;;;;;;;;;;;;5072381;28;19962;-45
2020/12/13 05:17:15;;;;;;;;;;;;;;;;;;5072313;28;20385;-43
2020/12/13 05:19:40;;;;;;;;;;;;;;;;;;5072024;28;19919;-44
2020/12/13 05:22:06;;;;;;;;;;;;;;;;;;5071240;28;19916;-44
2020/12/13 05:24:31;;;;;;;;;;;;;;;;;;5072268;28;19911;-44
2020/12/13 05:26:56;;;;;;;;;;;;;;;;;;5072024;28;19966;-45
2020/12/13 05:29:21;;;;;;;;;;;;;;;;;;5072189;28;19948;-43
2020/12/13 05:31:46;;;;;;;;;;;;;;;;;;5070483;28;19970;-45
2020/12/13 05:34:12;;;;;;;;;;;;;;;;;;5071214;28;19940;-43
2020/12/13 05:36:40;;;;;;;;;;;;;;;;;;5071935;28;19909;-45
2020/12/13 05:39:05;;;;;;;;;;;;;;;;;;5070622;28;19909;-43
2020/12/13 05:41:31;;;;;;;;;;;;;;;;;;5071988;28;20218;-43
2020/12/13 05:47:02;;;;;;;;;;;;;;;;;;5071855;28;19909;-44
2020/12/13 05:52:11;;;;;;;;;;;;;;;;;;5073419;28;19956;-46
2020/12/13 05:54:36;;;;;;;;;;;;;;;;;;5075656;28;19935;-42
2020/12/13 05:57:01;;;;;;;;;;;;;;;;;;5075735;28;19908;-46
2020/12/13 05:59:26;;;;;;;;;;;;;;;;;;5075503;28;19908;-44
2020/12/13 06:01:51;;;;;;;;;;;;;;;;;;5075129;28;19927;-45
2020/12/13 06:04:16;;;;;;;;;;;;;;;;;;5073769;28;19950;-43
2020/12/13 06:06:42;;;;;;;;;;;;;;;;;;5075477;28;19908;-44
2020/12/13 06:09:07;;;;;;;;;;;;;;;;;;5075593;28;19999;-44
2020/12/13 06:11:32;;;;;;;;;;;;;;;;;;5075161;28;19909;-44
2020/12/13 06:13:57;;;;;;;;;;;;;;;;;;5074536;28;20361;-44
2020/12/13 06:16:22;;;;;;;;;;;;;;;;;;5075154;28;19909;-44
2020/12/13 06:18:47;;;;;;;;;;;;;;;;;;5075341;28;19916;-43
2020/12/13 06:21:12;;;;;;;;;;;;;;;;;;5075042;28;19917;-43
2020/12/13 06:23:37;;;;;;;;;;;;;;;;;;5074385;28;20072;-42
2020/12/13 06:26:03;;;;;;;;;;;;;;;;;;5075038;28;19915;-44
2020/12/13 06:28:28;;;;;;;;;;;;;;;;;;5073715;28;19939;-45
2020/12/13 06:30:53;;;;;;;;;;;;;;;;;;5074833;28;20293;-43
2020/12/13 06:33:18;;;;;;;;;;;;;;;;;;5074317;28;20266;-45
2020/12/13 06:35:43;;;;;;;;;;;;;;;;;;5072709;28;20285;-46
2020/12/13 06:38:08;;;;;;;;;;;;;;;;;;5081135;28;20113;-46
2020/12/13 06:40:33;;;;;;;;;;;;;;;;;;5081717;28;19908;-43
2020/12/13 06:42:58;;;;;;;;;;;;;;;;;;5094059;28;19912;-45
2020/12/13 06:45:23;;;;;;;;;;;;;;;;;;5083041;28;19962;-45
2020/12/13 06:47:49;;;;;;;;;;;;;;;;;;5074522;28;20341;-45
2020/12/13 06:50:14;;;;;;;;;;;;;;;;;;5074563;28;20400;-44
2020/12/13 06:52:39;;;;;;;;;;;;;;;;;;5074798;28;19959;-44
2020/12/13 06:55:04;;;;;;;;;;;;;;;;;;5094848;28;19947;-44
2020/12/13 06:57:29;;;;;;;;;;;;;;;;;;5094615;28;19947;-45
2020/12/13 06:59:54;;;;;;;;;;;;;;;;;;5094561;28;19908;-44
2020/12/13 07:02:19;;;;;;;;;;;;;;;;;;5093737;28;20023;-45
2020/12/13 07:04:47;;;;;;;;;;;;;;;;;;5093837;28;20007;-44
2020/12/13 07:07:17;;;;;;;;;;;;;;;;;;5094459;28;19955;-43
2020/12/13 07:09:42;;;;;;;;;;;;;;;;;;5093467;28;19912;-45
2020/12/13 07:12:08;;;;;;;;;;;;;;;;;;5073540;28;19909;-44
2020/12/13 07:14:35;;;;;;;;;;;;;;;;;;5073848;28;20483;-43
2020/12/13 07:17:03;;;;;;;;;;;;;;;;;;5074078;28;19921;-44
2020/12/13 07:19:28;;;;;;;;;;;;;;;;;;5074150;28;19915;-45
2020/12/13 07:21:53;;;;;;;;;;;;;;;;;;5073480;28;19946;-45
2020/12/13 07:24:18;;;;;;;;;;;;;;;;;;5073266;28;19912;-44
2020/12/13 07:26:43;;;;;;;;;;;;;;;;;;5073941;28;19914;-45
2020/12/13 07:29:15;;;;;;;;;;;;;;;;;;5074612;28;19915;-42
2020/12/13 07:31:40;;;;;;;;;;;;;;;;;;5075416;28;19916;-43
2020/12/13 07:34:05;;;;;;;;;;;;;;;;;;5074500;28;19914;-45
2020/12/13 07:36:30;;;;;;;;;;;;;;;;;;5075322;28;19915;-43
2020/12/13 07:38:55;;;;;;;;;;;;;;;;;;5072371;28;19908;-44
2020/12/13 07:41:21;;;;;;;;;;;;;;;;;;5073693;28;20266;-42
2020/12/13 07:43:46;;;;;;;;;;;;;;;;;;5072662;28;19913;-44
2020/12/13 07:46:11;;;;;;;;;;;;;;;;;;5093704;28;19912;-43
2020/12/13 07:48:36;;;;;;;;;;;;;;;;;;5093700;28;19914;-45
2020/12/13 07:51:01;;;;;;;;;;;;;;;;;;5093704;28;19915;-44
2020/12/13 07:53:26;;;;;;;;;;;;;;;;;;5092934;28;19908;-44
2020/12/13 07:55:51;;;;;;;;;;;;;;;;;;5093440;28;19908;-45
2020/12/13 07:58:16;;;;;;;;;;;;;;;;;;5093410;28;19912;-44
2020/12/13 08:00:41;;;;;;;;;;;;;;;;;;5093544;28;20254;-43
2020/12/13 08:03:07;;;;;;;;;;;;;;;;;;5092715;28;20326;-44
2020/12/13 08:05:32;;;;;;;;;;;;;;;;;;5093268;28;19912;-45
2020/12/13 08:07:57;;;;;;;;;;;;;;;;;;5093240;28;19909;-43
2020/12/13 08:10:23;;;;;;;;;;;;;;;;;;5093163;28;19908;-44
2020/12/13 08:12:49;;;;;;;;;;;;;;;;;;5092392;28;19908;-45
2020/12/13 08:15:14;;;;;;;;;;;;;;;;;;5093029;28;19908;-43
2020/12/13 08:17:39;;;;;;;;;;;;;;;;;;5093352;28;20008;-44
2020/12/13 08:20:04;;;;;;;;;;;;;;;;;;5091605;28;19912;-44
2020/12/13 08:22:29;;;;;;;;;;;;;;;;;;5092342;28;20030;-43
2020/12/13 08:24:54;;;;;;;;;;;;;;;;;;5092939;28;19908;-46
2020/12/13 08:27:19;;;;;;;;;;;;;;;;;;5093163;28;20370;-43
2020/12/13 08:29:45;;;;;;;;;;;;;;;;;;5085489;28;19913;-45
2020/12/13 08:32:10;;;;;;;;;;;;;;;;;;5072289;28;19914;-45
2020/12/13 08:34:35;;;;;;;;;;;;;;;;;;5072904;28;20397;-45
2020/12/13 08:37:00;;;;;;;;;;;;;;;;;;5072843;28;20384;-44
2020/12/13 08:39:25;;;;;;;;;;;;;;;;;;5071068;28;20385;-43
2020/12/13 08:41:50;;;;;;;;;;;;;;;;;;5084469;28;20392;-42
2020/12/13 08:44:15;;;;;;;;;;;;;;;;;;5091512;28;19947;-44
2020/12/13 08:46:43;;;;;;;;;;;;;;;;;;5091314;28;20208;-44
2020/12/13 08:49:08;;;;;;;;;;;;;;;;;;5092368;28;19909;-43
2020/12/13 08:51:33;;;;;;;;;;;;;;;;;;5091506;28;19905;-44
2020/12/13 08:53:58;;;;;;;;;;;;;;;;;;5091228;28;19923;-45
2020/12/13 08:56:24;;;;;;;;;;;;;;;;;;5092120;28;19912;-43
2020/12/13 08:58:49;;;;;;;;;;;;;;;;;;5092687;28;19946;-44
2020/12/13 09:01:14;;;;;;;;;;;;;;;;;;5092093;28;19943;-44
2020/12/13 09:03:39;;;;;;;;;;;;;;;;;;5090979;28;20323;-46
2020/12/13 09:06:04;;;;;;;;;;;;;;;;;;5092230;28;20436;-44
2020/12/13 09:08:29;;;;;;;;;;;;;;;;;;5091517;28;20069;-45
2020/12/13 09:10:55;;;;;;;;;;;;;;;;;;5091489;28;19998;-45
2020/12/13 09:13:20;;;;;;;;;;;;;;;;;;5091786;28;19993;-50
2020/12/13 09:15:45;;;;;;;;;;;;;;;;;;5060287;28;19917;-45
2020/12/13 09:18:11;;;;;;;;;;;;;;;;;;5070510;28;19916;-44
2020/12/13 09:20:36;;;;;;;;;;;;;;;;;;5071695;28;20254;-44
2020/12/13 09:23:01;;;;;;;;;;;;;;;;;;5071019;28;19959;-47
2020/12/13 09:25:27;;;;;;;;;;;;;;;;;;5074547;28;19912;-46
2020/12/13 09:27:52;;;;;;;;;;;;;;;;;;5074667;28;19909;-46
2020/12/13 09:30:17;;;;;;;;;;;;;;;;;;5078325;28;19909;-46
2020/12/13 09:32:42;;;;;;;;;;;;;;;;;;5073933;28;19913;-46
2020/12/13 09:35:07;;;;;;;;;;;;;;;;;;5075414;28;19909;-46
2020/12/13 09:37:32;;;;;;;;;;;;;;;;;;5075964;28;19915;-46
2020/12/13 09:39:57;;;;;;;;;;;;;;;;;;5073842;28;19908;-46
2020/12/13 09:42:22;;;;;;;;;;;;;;;;;;5085977;28;19912;-46
2020/12/13 09:44:49;;;;;;;;;;;;;;;;;;5095407;28;20011;-44
2020/12/13 09:47:15;;;;;;;;;;;;;;;;;;5095459;28;20285;-44
2020/12/13 09:49:40;;;;;;;;;;;;;;;;;;5089869;28;19913;-49
2020/12/13 09:52:05;;;;;;;;;;;;;;;;;;5074496;28;20262;-46
2020/12/13 09:54:30;;;;;;;;;;;;;;;;;;5074934;28;19915;-48
2020/12/13 09:56:55;;;;;;;;;;;;;;;;;;5075044;28;20292;-45
2020/12/13 09:59:20;;;;;;;;;;;;;;;;;;5075584;28;20357;-47
2020/12/13 10:01:45;;;;;;;;;;;;;;;;;;5073251;28;19916;-45
2020/12/13 10:04:11;;;;;;;;;;;;;;;;;;5074884;28;19912;-44
2020/12/13 10:09:21;;;;;;;;;;;;;;;;;;5066403;28;19912;-47
2020/12/13 10:11:46;;;;;;;;;;;;;;;;;;5075017;28;19916;-46
2020/12/13 10:14:12;;;;;;;;;;;;;;;;;;5076832;28;19912;-43
2020/12/13 10:16:37;;;;;;;;;;;;;;;;;;5075361;28;19995;-46
2020/12/13 10:19:02;;;;;;;;;;;;;;;;;;5073721;28;20334;-47
2020/12/13 10:21:27;;;;;;;;;;;;;;;;;;5074656;28;19992;-44
2020/12/13 10:23:52;;;;;;;;;;;;;;;;;;5073772;28;19982;-47
2020/12/13 10:26:17;;;;;;;;;;;;;;;;;;5075190;28;19917;-46
2020/12/13 10:28:42;;;;;;;;;;;;;;;;;;5075072;28;19908;-47
2020/12/13 10:31:10;;;;;;;;;;;;;;;;;;5074471;28;19995;-46
2020/12/13 10:33:39;;;;;;;;;;;;;;;;;;5074158;28;19916;-47
2020/12/13 10:36:04;;;;;;;;;;;;;;;;;;5075190;28;19915;-45
2020/12/13 10:38:30;;;;;;;;;;;;;;;;;;5072803;28;19912;-44
2020/12/13 10:40:55;;;;;;;;;;;;;;;;;;5074649;28;19909;-45
2020/12/13 10:43:21;;;;;;;;;;;;;;;;;;5073920;28;19924;-44
2020/12/13 10:45:46;;;;;;;;;;;;;;;;;;5074230;28;20399;-47
2020/12/13 10:48:12;;;;;;;;;;;;;;;;;;5074529;28;20363;-45
2020/12/13 10:50:37;;;;;;;;;;;;;;;;;;5074271;28;20448;-45
2020/12/13 10:53:02;;;;;;;;;;;;;;;;;;5073566;28;19995;-45
2020/12/13 10:55:27;;;;;;;;;;;;;;;;;;5074638;28;20351;-47
2020/12/13 10:57:52;;;;;;;;;;;;;;;;;;5073870;28;20381;-46
2020/12/13 11:00:17;;;;;;;;;;;;;;;;;;5074506;28;20427;-46
2020/12/13 11:02:42;;;;;;;;;;;;;;;;;;5072365;28;19966;-48
2020/12/13 11:05:08;;;;;;;;;;;;;;;;;;5070873;28;19918;-43
2020/12/13 11:07:33;;;;;;;;;;;;;;;;;;5074453;28;20007;-48
2020/12/13 11:09:58;;;;;;;;;;;;;;;;;;5073320;28;20361;-46
2020/12/13 11:12:23;;;;;;;;;;;;;;;;;;5074973;28;19908;-45
2020/12/13 11:14:48;;;;;;;;;;;;;;;;;;5094293;28;20300;-43
2020/12/13 11:17:13;;;;;;;;;;;;;;;;;;5082025;28;20342;-47
2020/12/13 11:19:38;;;;;;;;;;;;;;;;;;5073009;28;19944;-45
2020/12/13 11:22:03;;;;;;;;;;;;;;;;;;5072386;28;19923;-48
2020/12/13 11:24:29;;;;;;;;;;;;;;;;;;5073980;28;19908;-47
2020/12/13 11:26:54;;;;;;;;;;;;;;;;;;5074151;28;19908;-45
2020/12/13 11:29:19;;;;;;;;;;;;;;;;;;5055700;28;19944;-47
2020/12/13 11:31:44;;;;;;;;;;;;;;;;;;5007286;28;81201;-44
2020/12/13 11:34:09;;;;;;;;;;;;;;;;;;5012830;28;20366;-48
2020/12/13 11:36:34;;;;;;;;;;;;;;;;;;5013003;28;20008;-47
2020/12/13 11:39:00;;;;;;;;;;;;;;;;;;5012460;28;19913;-46
2020/12/13 11:41:25;;;;;;;;;;;;;;;;;;5012246;28;19917;-48
2020/12/13 11:43:50;;;;;;;;;;;;;;;;;;5012581;28;19920;-43
2020/12/13 11:46:15;;;;;;;;;;;;;;;;;;5013504;28;19992;-45
2020/12/13 11:48:40;;;;;;;;;;;;;;;;;;5014025;28;20360;-47
2020/12/13 11:51:05;;;;;;;;;;;;;;;;;;5012515;28;20447;-45
2020/12/13 11:53:30;;;;;;;;;;;;;;;;;;5013309;28;20012;-44
2020/12/13 11:55:57;;;;;;;;;;;;;;;;;;5013925;28;19917;-43
2020/12/13 11:58:22;;;;;;;;;;;;;;;;;;5013756;28;19932;-45
2020/12/13 12:00:47;;;;;;;;;;;;;;;;;;5012278;28;19917;-43
2020/12/13 12:03:12;;;;;;;;;;;;;;;;;;5013178;28;19913;-45
2020/12/13 12:05:37;;;;;;;;;;;;;;;;;;5013728;28;20377;-46
2020/12/13 12:08:02;;;;;;;;;;;;;;;;;;5013312;28;20385;-45
2020/12/13 12:10:27;;;;;;;;;;;;;;;;;;5030608;28;19909;-47
2020/12/13 12:12:53;;;;;;;;;;;;;;;;;;5032482;28;20008;-46
2020/12/13 12:15:18;;;;;;;;;;;;;;;;;;5032719;28;20004;-45
2020/12/13 12:17:43;;;;;;;;;;;;;;;;;;5026253;28;19996;-43
2020/12/13 12:20:08;;;;;;;;;;;;;;;;;;5001811;28;19993;-45
2020/12/13 12:22:33;;;;;;;;;;;;;;;;;;4992128;28;20024;-45
2020/12/13 12:24:58;;;;;;;;;;;;;;;;;;4993880;28;19909;-44
2020/12/13 12:27:23;;;;;;;;;;;;;;;;;;4993762;28;19910;-42
2020/12/13 12:29:48;;;;;;;;;;;;;;;;;;4993304;28;19910;-47
2020/12/13 12:32:14;;;;;;;;;;;;;;;;;;4992389;28;19917;-43
2020/12/13 12:34:39;;;;;;;;;;;;;;;;;;4993616;28;19993;-45
2020/12/13 12:37:04;;;;;;;;;;;;;;;;;;4993246;28;20009;-44
2020/12/13 12:39:30;;;;;;;;;;;;;;;;;;4993472;28;19980;-43
2020/12/13 12:41:55;;;;;;;;;;;;;;;;;;4993148;28;19909;-42
2020/12/13 12:44:20;;;;;;;;;;;;;;;;;;4992654;28;19920;-45
2020/12/13 12:46:45;;;;;;;;;;;;;;;;;;4993533;28;20004;-45
2020/12/13 12:49:10;;;;;;;;;;;;;;;;;;4993442;28;20008;-45
2020/12/13 12:51:35;;;;;;;;;;;;;;;;;;4992637;28;20001;-41
2020/12/13 12:54:00;;;;;;;;;;;;;;;;;;4992626;28;20286;-40
2020/12/13 12:56:27;;;;;;;;;;;;;;;;;;4993322;28;20379;-43
2020/12/13 12:59:00;;;;;;;;;;;;;;;;;;4993329;28;20290;-47
2020/12/13 13:01:25;;;;;;;;;;;;;;;;;;4992157;28;19910;-46
2020/12/13 13:03:57;;;;;;;;;;;;;;;;;;4992357;28;19914;-44
2020/12/13 13:06:33;;;;;;;;;;;;;;;;;;4992869;28;19910;-43
2020/12/13 13:11:33;;;;;;;;;;;;;;;;;;5031972;28;20000;-45
2020/12/13 13:13:58;;;;;;;;;;;;;;;;;;5031204;28;19913;-42
2020/12/13 13:16:24;;;;;;;;;;;;;;;;;;5032283;28;19909;-44
2020/12/13 13:18:49;;;;;;;;;;;;;;;;;;5024537;28;19952;-42
2020/12/13 13:21:14;;;;;;;;;;;;;;;;;;5010525;28;19918;-44
2020/12/13 13:23:39;;;;;;;;;;;;;;;;;;5081132;23;19987;-44
2020/12/13 13:26:04;;;;;;;;;;;;;;;;;;5010309;28;19910;-44
2020/12/13 13:28:29;;;;;;;;;;;;;;;;;;5012128;28;19909;-43
2020/12/13 13:30:54;;;;;;;;;;;;;;;;;;5012685;28;19909;-42
2020/12/13 13:33:19;;;;;;;;;;;;;;;;;;5011639;28;20271;-46
2020/12/13 13:35:45;;;;;;;;;;;;;;;;;;5012413;28;20290;-43
2020/12/13 13:38:10;;;;;;;;;;;;;;;;;;5012440;28;20000;-43
2020/12/13 13:40:35;;;;;;;;;;;;;;;;;;5012320;28;19909;-43
2020/12/13 13:43:06;;;;;;;;;;;;;;;;;;5011267;28;19944;-44
2020/12/13 13:45:49;;;;;;;;;;;;;;;;;;5012342;28;19910;-45
2020/12/13 13:50:43;;;;;;;;;;;;;;;;;;5012645;28;19921;-41
2020/12/13 13:53:08;;;;;;;;;;;;;;;;;;5011377;28;19905;-41
2020/12/13 13:55:34;;;;;;;;;;;;;;;;;;5011341;28;19920;-40
2020/12/13 13:58:02;;;;;;;;;;;;;;;;;;5005312;28;20337;-43
2020/12/13 14:00:27;;;;;;;;;;;;;;;;;;4992754;28;19916;-45
2020/12/13 14:02:53;;;;;;;;;;;;;;;;;;4990777;28;20016;-42
2020/12/13 14:05:18;;;;;;;;;;;;;;;;;;4990797;28;20011;-43
2020/12/13 14:10:21;;;;;;;;;;;;;;;;;;4992763;28;19914;-41
2020/12/13 14:12:46;;;;;;;;;;;;;;;;;;4992980;28;19924;-41
2020/12/13 14:15:11;;;;;;;;;;;;;;;;;;4996018;28;19957;-43
2020/12/13 14:17:37;;;;;;;;;;;;;;;;;;4996023;28;19953;-44
2020/12/13 14:20:02;;;;;;;;;;;;;;;;;;4994812;28;19952;-42
2020/12/13 14:22:27;;;;;;;;;;;;;;;;;;4990419;28;19918;-43
2020/12/13 14:24:52;;;;;;;;;;;;;;;;;;4995637;28;20397;-44
2020/12/13 14:27:17;;;;;;;;;;;;;;;;;;4994535;28;20430;-41
2020/12/13 14:29:43;;;;;;;;;;;;;;;;;;4995713;28;19952;-43
2020/12/13 14:32:08;;;;;;;;;;;;;;;;;;4994932;28;19964;-44
2020/12/13 14:34:33;;;;;;;;;;;;;;;;;;4995564;28;19925;-42
2020/12/13 14:36:58;;;;;;;;;;;;;;;;;;4995775;28;20004;-42
2020/12/13 14:39:23;;;;;;;;;;;;;;;;;;4995694;28;19997;-41
2020/12/13 14:41:49;;;;;;;;;;;;;;;;;;4995636;28;20012;-46
2020/12/13 14:44:14;;;;;;;;;;;;;;;;;;4994584;28;19997;-40
2020/12/13 14:46:39;;;;;;;;;;;;;;;;;;4995538;28;20068;-45
2020/12/13 14:49:04;;;;;;;;;;;;;;;;;;4995497;28;20040;-41
2020/12/13 14:51:31;;;;;;;;;;;;;;;;;;4995460;28;19910;-40
2020/12/13 14:53:57;;;;;;;;;;;;;;;;;;4994272;28;20418;-44
2020/12/13 14:56:22;;;;;;;;;;;;;;;;;;4995453;28;19910;-42
2020/12/13 14:58:47;;;;;;;;;;;;;;;;;;4995445;28;20015;-44
2020/12/13 15:01:12;;;;;;;;;;;;;;;;;;4995202;28;20383;-42
2020/12/13 15:03:37;;;;;;;;;;;;;;;;;;4994186;28;19951;-42
2020/12/13 15:06:02;;;;;;;;;;;;;;;;;;4995120;28;19914;-40
2020/12/13 15:08:27;;;;;;;;;;;;;;;;;;4995058;28;19947;-44
2020/12/13 15:10:53;;;;;;;;;;;;;;;;;;4995320;28;19910;-44
2020/12/13 15:18:11;;;;;;;;;;;;;;;;;;4994987;28;19910;-42
2020/12/13 15:20:36;;;;;;;;;;;;;;;;;;4994154;28;19928;-42
2020/12/13 15:23:01;;;;;;;;;;;;;;;;;;4992693;28;19928;-40
2020/12/13 15:25:26;;;;;;;;;;;;;;;;;;4993970;28;20004;-44
2020/12/13 15:27:51;;;;;;;;;;;;;;;;;;4994776;28;19937;-41
2020/12/13 15:30:16;;;;;;;;;;;;;;;;;;4994840;28;19961;-43
2020/12/13 15:32:42;;;;;;;;;;;;;;;;;;4993846;28;19921;-43
2020/12/13 15:35:07;;;;;;;;;;;;;;;;;;4993102;28;19913;-42
2020/12/13 15:37:32;;;;;;;;;;;;;;;;;;4994385;28;19905;-42
2020/12/13 15:40:01;;;;;;;;;;;;;;;;;;4994364;28;20008;-43
2020/12/13 15:42:34;;;;;;;;;;;;;;;;;;4993877;28;19914;-43
2020/12/13 15:44:59;;;;;;;;;;;;;;;;;;4994065;28;19910;-43
2020/12/13 15:47:24;;;;;;;;;;;;;;;;;;4994365;28;19914;-43
2020/12/13 15:49:49;;;;;;;;;;;;;;;;;;4994179;28;19910;-42
2020/12/13 15:52:15;;;;;;;;;;;;;;;;;;4993487;28;19909;-41
2020/12/13 15:54:40;;;;;;;;;;;;;;;;;;4993771;28;19920;-43
2020/12/13 15:57:05;;;;;;;;;;;;;;;;;;4994123;28;19917;-45
2020/12/13 15:59:30;;;;;;;;;;;;;;;;;;4994093;28;19956;-42
2020/12/13 16:01:57;;;;;;;;;;;;;;;;;;4993467;28;19936;-38
2020/12/13 16:04:22;;;;;;;;;;;;;;;;;;4993855;28;19914;-42
2020/12/13 16:06:48;;;;;;;;;;;;;;;;;;4994016;28;19917;-44
2020/12/13 16:09:13;;;;;;;;;;;;;;;;;;4994188;28;19965;-43
2020/12/13 16:11:38;;;;;;;;;;;;;;;;;;4992645;28;20394;-43
2020/12/13 16:14:04;;;;;;;;;;;;;;;;;;4993186;28;19910;-45
2020/12/13 16:16:29;;;;;;;;;;;;;;;;;;4993862;28;19914;-42
2020/12/13 16:18:54;;;;;;;;;;;;;;;;;;4993990;28;19917;-42
2020/12/13 16:21:20;;;;;;;;;;;;;;;;;;4993559;28;19933;-44
2020/12/13 16:23:45;;;;;;;;;;;;;;;;;;4996107;28;20375;-45
2020/12/13 16:26:10;;;;;;;;;;;;;;;;;;4993556;28;19916;-43
2020/12/13 16:28:35;;;;;;;;;;;;;;;;;;4993544;28;19909;-45
2020/12/13 16:31:00;;;;;;;;;;;;;;;;;;4993476;28;20292;-42
2020/12/13 16:33:25;;;;;;;;;;;;;;;;;;4992556;28;19910;-44
2020/12/13 16:35:51;;;;;;;;;;;;;;;;;;4992197;28;19957;-40
2020/12/13 16:38:22;;;;;;;;;;;;;;;;;;4993248;28;19917;-42
2020/12/13 16:40:47;;;;;;;;;;;;;;;;;;4992155;28;19910;-42
2020/12/13 16:43:33;;;;;;;;;;;;;;;;;;4992233;28;19914;-40
2020/12/13 16:46:04;;;;;;;;;;;;;;;;;;4993181;28;20391;-43
2020/12/13 16:54:04;;;;;;;;;;;;;;;;;;4992062;28;19906;-42
2020/12/13 16:56:30;;;;;;;;;;;;;;;;;;4993396;28;19910;-44
2020/12/13 16:58:55;;;;;;;;;;;;;;;;;;4993169;28;19906;-43